Terminal Aerodrome Forecast
Issued by NWS Atlanta, GA

Home | Current Version | Previous Version | Text Only | Print | Product List | Glossary On
Versions: 1 2 3 4 5 6 7 8 9 10 11 12 13 14
000
FTUS42 KFFC 221732
TAFCSG
TAF
KCSG 221732Z 2218/2318 18007KT P6SM SHRA BKN035
      TEMPO 2218/2222 4SM TSRA OVC015CB
     FM230200 15004KT P6SM VCSH SCT035 BKN050
     FM230700 16004KT P6SM OVC012
     FM230900 18004KT P6SM OVC008
     FM231500 19004KT P6SM VCSH OVC012=

USA.gov is the U.S. government's official web portal to all federal, state and local government web resources and services.